createdAt,value
2018-04-06T00:02:02.851Z,5.70
2018-04-06T00:04:29.623Z,5.70
2018-04-06T00:06:56.747Z,5.80
2018-04-06T00:09:23.137Z,5.80
2018-04-06T00:11:49.516Z,5.80
2018-04-06T00:14:15.918Z,5.80
2018-04-06T00:16:42.304Z,5.80
2018-04-06T00:19:09.369Z,5.80
2018-04-06T00:21:35.812Z,5.80
2018-04-06T00:24:02.339Z,5.70
2018-04-06T00:26:28.728Z,5.80
2018-04-06T00:28:55.122Z,5.70
2018-04-06T00:31:21.662Z,5.70
2018-04-06T00:33:48.183Z,5.70
2018-04-06T00:36:14.591Z,5.70
2018-04-06T00:38:40.966Z,5.70
2018-04-06T00:41:07.372Z,5.60
2018-04-06T00:43:33.756Z,5.70
2018-04-06T00:46:00.236Z,5.70
2018-04-06T00:48:26.675Z,5.70
2018-04-06T00:50:53.103Z,5.40
2018-04-06T00:53:46.697Z,5.40
2018-04-06T00:56:13.127Z,5.30
2018-04-06T00:58:39.502Z,5.30
2018-04-06T01:01:06.652Z,5.30
2018-04-06T01:03:34.376Z,5.40
2018-04-06T01:06:01.661Z,5.30
2018-04-06T01:08:28.035Z,5.30
2018-04-06T01:10:54.493Z,5.30
2018-04-06T01:13:20.875Z,5.30
2018-04-06T01:15:48.081Z,5.00
2018-04-06T01:18:14.483Z,5.00
2018-04-06T01:20:40.896Z,4.90
2018-04-06T01:23:09.053Z,4.90
2018-04-06T01:25:36.193Z,4.80
2018-04-06T01:28:03.323Z,4.70
2018-04-06T01:30:29.731Z,4.70
2018-04-06T01:32:56.131Z,4.60
2018-04-06T01:35:23.299Z,4.30
2018-04-06T01:37:49.680Z,4.20
2018-04-06T01:40:16.088Z,4.20
2018-04-06T01:42:42.460Z,4.10
2018-04-06T01:45:08.935Z,4.00
2018-04-06T01:47:35.303Z,4.00
2018-04-06T01:50:01.726Z,3.80
2018-04-06T01:52:28.102Z,3.70
2018-04-06T01:54:55.298Z,3.70
2018-04-06T01:57:21.728Z,3.70
2018-04-06T01:59:48.131Z,3.80
2018-04-06T02:02:21.447Z,3.70
2018-04-06T02:04:47.803Z,3.70
2018-04-06T02:07:14.201Z,3.70
2018-04-06T02:09:40.663Z,3.70
2018-04-06T02:12:08.114Z,3.70
2018-04-06T02:14:34.528Z,3.70
2018-04-06T02:17:00.922Z,3.70
2018-04-06T02:19:28.615Z,3.60
2018-04-06T02:21:54.976Z,3.60
2018-04-06T02:24:21.376Z,3.60
2018-04-06T02:26:47.814Z,3.50
2018-04-06T02:29:14.211Z,3.50
2018-04-06T02:31:40.598Z,3.40
2018-04-06T02:34:06.992Z,3.40
2018-04-06T02:36:34.147Z,3.40
2018-04-06T02:39:01.316Z,3.20
2018-04-06T02:41:27.731Z,3.20
2018-04-06T02:43:55.919Z,2.90
2018-04-06T02:46:23.224Z,2.90
2018-04-06T02:48:49.708Z,3.00
2018-04-06T02:51:16.140Z,3.00
2018-04-06T02:53:43.153Z,3.10
2018-04-06T02:56:09.511Z,3.20
2018-04-06T02:58:35.951Z,3.10
2018-04-06T03:01:02.319Z,3.20
2018-04-06T03:03:28.711Z,3.10
2018-04-06T03:05:55.090Z,3.10
2018-04-06T03:08:21.607Z,3.10
2018-04-06T03:10:48.122Z,3.10
2018-04-06T03:13:14.664Z,3.00
2018-04-06T03:15:41.054Z,2.90
2018-04-06T03:18:09.175Z,2.90
2018-04-06T03:20:36.139Z,2.80
2018-04-06T03:23:02.571Z,2.90
2018-04-06T03:25:28.931Z,2.90
2018-04-06T03:27:55.429Z,2.80
2018-04-06T03:30:21.799Z,2.80
2018-04-06T03:32:48.919Z,2.70
2018-04-06T03:35:15.328Z,2.60
2018-04-06T03:37:41.710Z,2.50
2018-04-06T03:40:08.415Z,2.40
2018-04-06T03:42:34.775Z,2.30
2018-04-06T03:45:01.780Z,2.30
2018-04-06T03:47:28.222Z,2.20
2018-04-06T03:49:54.658Z,2.10
2018-04-06T03:52:21.039Z,2.00
2018-04-06T03:54:48.171Z,1.90
2018-04-06T03:57:14.645Z,1.90
2018-04-06T03:59:41.606Z,1.90
2018-04-06T04:02:08.019Z,1.90
2018-04-06T04:04:34.399Z,1.90
2018-04-06T04:07:00.788Z,1.80
2018-04-06T04:09:27.186Z,1.80
2018-04-06T04:11:53.572Z,1.80
2018-04-06T04:14:19.951Z,1.70
2018-04-06T04:16:47.060Z,1.70
2018-04-06T04:19:13.415Z,1.70
2018-04-06T04:21:40.362Z,1.60
2018-04-06T04:24:06.801Z,1.60
2018-04-06T04:26:33.186Z,1.60
2018-04-06T04:29:00.157Z,1.60
2018-04-06T04:31:27.563Z,1.60
2018-04-06T04:33:54.705Z,1.60
2018-04-06T04:36:22.428Z,1.60
2018-04-06T04:38:48.831Z,1.60
2018-04-06T04:41:15.206Z,1.60
2018-04-06T04:43:41.562Z,1.60
2018-04-06T04:46:08.025Z,1.70
2018-04-06T04:48:34.384Z,1.70
2018-04-06T04:51:01.810Z,1.80
2018-04-06T04:53:28.202Z,1.90
2018-04-06T04:55:55.569Z,1.90
2018-04-06T04:58:22.027Z,2.00
2018-04-06T05:00:49.207Z,2.20
2018-04-06T05:03:16.203Z,2.10
2018-04-06T05:05:43.858Z,2.30
2018-04-06T05:08:10.876Z,2.20
2018-04-06T05:10:37.279Z,2.30
2018-04-06T05:13:03.671Z,2.40
2018-04-06T05:15:31.518Z,2.50
2018-04-06T05:17:57.918Z,2.50
2018-04-06T05:20:24.327Z,2.60
2018-04-06T05:22:52.376Z,2.70
2018-04-06T05:25:18.735Z,2.70
2018-04-06T05:27:45.107Z,2.80
2018-04-06T05:30:11.610Z,2.80
2018-04-06T05:32:38.011Z,2.90
2018-04-06T05:35:06.110Z,3.00
2018-04-06T05:37:32.495Z,3.00
2018-04-06T05:39:59.644Z,3.20
2018-04-06T05:42:26.039Z,3.20
2018-04-06T05:44:52.419Z,3.30
2018-04-06T05:47:19.766Z,3.40
2018-04-06T05:49:46.177Z,3.50
2018-04-06T05:52:13.632Z,3.60
2018-04-06T05:54:40.042Z,3.70
2018-04-06T05:57:06.460Z,3.80
2018-04-06T05:59:33.752Z,4.00
2018-04-06T06:02:00.143Z,4.00
2018-04-06T06:04:27.270Z,4.20
2018-04-06T06:06:53.647Z,4.20
2018-04-06T06:09:20.032Z,4.30
2018-04-06T06:11:46.420Z,4.40
2018-04-06T06:14:12.865Z,4.50
2018-04-06T06:16:40.245Z,4.60
2018-04-06T06:19:06.615Z,4.70
2018-04-06T06:21:34.072Z,4.80
2018-04-06T06:24:01.182Z,4.90
2018-04-06T06:26:27.586Z,4.90
2018-04-06T06:28:53.966Z,5.10
2018-04-06T06:31:21.078Z,5.40
2018-04-06T06:33:47.465Z,5.40
2018-04-06T06:36:13.917Z,5.60
2018-04-06T06:38:40.353Z,5.80
2018-04-06T06:41:06.727Z,5.90
2018-04-06T06:43:33.131Z,6.20
2018-04-06T06:45:59.497Z,6.30
2018-04-06T06:48:25.971Z,6.50
2018-04-06T06:50:52.343Z,6.70
2018-04-06T06:53:18.763Z,6.80
2018-04-06T06:55:45.135Z,6.80
2018-04-06T06:58:12.242Z,7.00
2018-04-06T07:00:38.678Z,7.00
2018-04-06T07:03:05.798Z,7.20
2018-04-06T07:05:32.223Z,7.10
2018-04-06T07:07:58.624Z,7.30
2018-04-06T07:10:24.991Z,7.40
2018-04-06T07:12:51.361Z,7.50
2018-04-06T07:15:17.759Z,7.50
2018-04-06T07:17:44.127Z,7.50
2018-04-06T07:20:10.527Z,7.70
2018-04-06T07:22:36.915Z,7.90
2018-04-06T07:25:03.304Z,7.90
2018-04-06T07:27:29.683Z,7.80
2018-04-06T07:29:56.843Z,8.10
2018-04-06T07:32:24.002Z,8.20
2018-04-06T07:34:51.198Z,8.00
2018-04-06T07:37:17.707Z,8.00
2018-04-06T07:39:44.116Z,7.90
2018-04-06T07:42:11.315Z,8.10
2018-04-06T07:44:37.723Z,8.00
2018-04-06T07:47:04.093Z,8.00
2018-04-06T07:49:30.590Z,7.90
2018-04-06T07:51:58.028Z,8.10
2018-04-06T07:54:24.415Z,8.10
2018-04-06T07:56:50.845Z,8.20
2018-04-06T07:59:17.884Z,8.40
2018-04-06T08:01:44.291Z,8.50
2018-04-06T08:04:10.691Z,8.60
2018-04-06T08:06:38.899Z,8.90
2018-04-06T08:09:05.340Z,8.90
2018-04-06T08:11:31.748Z,9.00
2018-04-06T08:13:58.131Z,9.00
2018-04-06T08:16:24.554Z,9.20
2018-04-06T08:18:51.063Z,9.30
2018-04-06T08:21:17.447Z,9.50
2018-04-06T08:23:44.126Z,9.50
2018-04-06T08:26:12.040Z,9.60
2018-04-06T08:28:39.058Z,9.60
2018-04-06T08:31:05.422Z,9.90
2018-04-06T08:33:32.818Z,10.20
2018-04-06T08:35:59.224Z,10.10
2018-04-06T08:38:25.602Z,10.10
2018-04-06T08:40:53.622Z,10.00
2018-04-06T08:43:21.035Z,10.00
2018-04-06T08:45:49.847Z,9.90
2018-04-06T08:48:16.226Z,9.90
2018-04-06T08:50:42.619Z,10.00
2018-04-06T08:53:08.995Z,10.10
2018-04-06T08:55:36.126Z,10.30
2018-04-06T08:58:03.296Z,10.30
2018-04-06T09:00:29.655Z,10.60
2018-04-06T09:02:57.006Z,10.80
2018-04-06T09:05:23.407Z,10.70
2018-04-06T09:07:51.123Z,10.80
2018-04-06T09:10:17.489Z,10.70
2018-04-06T09:12:44.678Z,11.50
2018-04-06T09:15:11.088Z,11.50
2018-04-06T09:17:38.195Z,12.10
2018-04-06T09:20:04.615Z,12.00
2018-04-06T09:22:31.815Z,12.10
2018-04-06T09:24:58.931Z,12.50
2018-04-06T09:27:25.348Z,12.40
2018-04-06T09:29:51.802Z,12.60
2018-04-06T09:32:18.196Z,12.60
2018-04-06T09:34:44.591Z,12.50
2018-04-06T09:37:11.703Z,12.40
2018-04-06T09:39:38.107Z,12.40
2018-04-06T09:42:04.528Z,12.40
2018-04-06T09:44:30.911Z,12.50
2018-04-06T09:46:57.526Z,12.60
2018-04-06T09:49:24.165Z,12.70
2018-04-06T09:51:50.803Z,12.90
2018-04-06T09:54:17.237Z,12.80
2018-04-06T09:56:43.771Z,12.70
2018-04-06T09:59:10.305Z,12.70
2018-04-06T10:01:36.832Z,12.90
2018-04-06T10:04:03.478Z,13.30
2018-04-06T10:06:30.117Z,13.40
2018-04-06T10:08:56.650Z,13.60
2018-04-06T10:11:23.291Z,13.80
2018-04-06T10:13:49.927Z,13.90
2018-04-06T10:16:16.381Z,14.20
2018-04-06T10:18:42.997Z,14.40
2018-04-06T10:21:09.432Z,14.50
2018-04-06T10:23:35.968Z,14.50
2018-04-06T10:26:02.503Z,14.40
2018-04-06T10:28:29.139Z,14.40
2018-04-06T10:30:55.676Z,14.30
2018-04-06T10:33:22.313Z,14.40
2018-04-06T10:35:48.854Z,14.30
2018-04-06T10:38:15.487Z,14.40
2018-04-06T10:40:42.011Z,14.60
2018-04-06T10:43:08.663Z,14.50
2018-04-06T10:45:35.916Z,14.60
2018-04-06T10:48:02.550Z,14.70
2018-04-06T10:50:29.086Z,14.80
2018-04-06T10:52:55.519Z,14.80
2018-04-06T10:55:22.054Z,14.60
2018-04-06T10:57:48.617Z,14.50
2018-04-06T11:00:16.152Z,14.40
2018-04-06T11:02:42.786Z,14.50
2018-04-06T11:05:09.322Z,14.80
2018-04-06T11:07:36.985Z,15.00
2018-04-06T11:10:04.237Z,14.90
2018-04-06T11:12:30.669Z,14.90
2018-04-06T11:14:57.308Z,14.90
2018-04-06T11:17:23.843Z,15.10
2018-04-06T11:19:50.485Z,15.30
2018-04-06T11:22:16.999Z,15.40
2018-04-06T11:24:43.655Z,15.60
2018-04-06T11:27:11.111Z,15.80
2018-04-06T11:29:37.647Z,16.10
2018-04-06T11:32:04.084Z,16.20
2018-04-06T11:34:31.044Z,16.60
2018-04-06T11:36:57.559Z,16.80
2018-04-06T11:39:25.120Z,16.90
2018-04-06T11:41:51.655Z,16.80
2018-04-06T11:44:18.086Z,16.50
2018-04-06T11:46:44.724Z,16.60
2018-04-06T11:49:11.155Z,16.60
2018-04-06T11:51:37.589Z,16.70
2018-04-06T11:54:04.129Z,16.70
2018-04-06T11:56:30.661Z,16.70
2018-04-06T11:58:57.300Z,16.80
2018-04-06T12:01:23.938Z,16.60
2018-04-06T12:03:50.575Z,16.50
2018-04-06T12:06:17.213Z,16.50
2018-04-06T12:08:43.750Z,16.20
2018-04-06T12:11:10.389Z,16.20
2018-04-06T12:13:37.640Z,16.30
2018-04-06T12:16:04.277Z,16.30
2018-04-06T12:18:30.809Z,16.50
2018-04-06T12:20:57.335Z,16.60
2018-04-06T12:23:23.781Z,16.40
2018-04-06T12:25:50.856Z,16.50
2018-04-06T12:28:18.182Z,16.70
2018-04-06T12:30:44.718Z,16.70
2018-04-06T12:33:11.355Z,16.70
2018-04-06T12:35:37.891Z,16.80
2018-04-06T12:38:04.528Z,17.10
2018-04-06T12:40:31.064Z,17.80
2018-04-06T12:42:57.585Z,18.30
2018-04-06T12:45:24.136Z,18.60
2018-04-06T12:47:50.665Z,19.40
2018-04-06T12:50:17.105Z,19.90
2018-04-06T12:52:43.638Z,20.30
2018-04-06T12:55:10.276Z,20.50
2018-04-06T12:57:36.812Z,20.90
2018-04-06T13:00:03.348Z,21.40
2018-04-06T13:02:29.882Z,21.70
2018-04-06T13:04:56.418Z,22.60
2018-04-06T13:07:22.851Z,22.50
2018-04-06T13:09:49.271Z,22.60
2018-04-06T13:12:15.712Z,22.50
2018-04-06T13:14:42.150Z,22.40
2018-04-06T13:17:08.691Z,22.40
2018-04-06T13:19:35.119Z,22.90
2018-04-06T13:22:01.658Z,23.40
2018-04-06T13:24:28.191Z,23.30
2018-04-06T13:26:54.716Z,23.60
2018-04-06T13:29:22.076Z,23.80
2018-04-06T13:31:48.622Z,23.70
2018-04-06T13:34:15.261Z,23.30
2018-04-06T13:36:41.797Z,23.50
2018-04-06T13:39:08.331Z,24.00
2018-04-06T13:41:34.870Z,24.20
2018-04-06T13:44:01.404Z,24.30
2018-04-06T13:46:27.938Z,24.60
2018-04-06T13:48:54.576Z,25.00
2018-04-06T13:51:21.216Z,25.10
2018-04-06T13:53:47.646Z,25.10
2018-04-06T13:56:14.283Z,25.10
2018-04-06T13:58:40.804Z,25.10
2018-04-06T14:01:07.391Z,25.00
2018-04-06T14:03:33.993Z,25.30
2018-04-06T14:06:00.428Z,25.50
2018-04-06T14:08:26.949Z,25.70
2018-04-06T14:10:53.496Z,25.50
2018-04-06T14:13:20.134Z,25.70
2018-04-06T14:15:46.678Z,26.00
2018-04-06T14:18:13.411Z,26.40
2018-04-06T14:20:40.059Z,26.10
2018-04-06T14:23:06.586Z,25.60
2018-04-06T14:25:33.119Z,25.60
2018-04-06T14:27:59.654Z,25.80
2018-04-06T14:30:26.291Z,25.80
2018-04-06T14:32:52.847Z,25.70
2018-04-06T14:35:19.363Z,25.90
2018-04-06T14:37:45.794Z,26.00
2018-04-06T14:40:12.212Z,25.80
2018-04-06T14:42:38.766Z,25.70
2018-04-06T14:45:05.511Z,25.60
2018-04-06T14:47:32.775Z,26.00
2018-04-06T14:49:59.293Z,26.00
2018-04-06T14:52:26.232Z,26.10
2018-04-06T14:54:52.773Z,26.10
2018-04-06T14:57:19.309Z,26.00
2018-04-06T14:59:45.741Z,25.90
2018-04-06T15:02:12.276Z,25.80
2018-04-06T15:04:38.708Z,26.20
2018-04-06T15:07:05.350Z,26.40
2018-04-06T15:09:31.881Z,26.40
2018-04-06T15:11:58.418Z,26.90
2018-04-06T15:14:25.874Z,26.50
2018-04-06T15:16:52.417Z,26.30
2018-04-06T15:19:18.843Z,26.10
2018-04-06T15:21:45.277Z,25.30
2018-04-06T15:24:11.682Z,25.40
2018-04-06T15:26:38.079Z,25.40
2018-04-06T15:29:04.516Z,25.30
2018-04-06T15:31:31.631Z,26.00
2018-04-06T15:33:58.019Z,25.90
2018-04-06T15:36:24.383Z,25.80
2018-04-06T15:38:50.755Z,26.00
2018-04-06T15:41:17.127Z,25.70
2018-04-06T15:43:43.527Z,25.90
2018-04-06T15:46:10.627Z,26.00
2018-04-06T15:48:36.999Z,25.90
2018-04-06T15:51:03.379Z,25.70
2018-04-06T15:53:29.747Z,25.50
2018-04-06T15:55:56.127Z,25.00
2018-04-06T15:58:22.499Z,24.60
2018-04-06T16:00:48.887Z,25.10
2018-04-06T16:03:15.322Z,25.40
2018-04-06T16:05:41.755Z,25.30
2018-04-06T16:08:08.367Z,25.30
2018-04-06T16:10:35.499Z,24.20
2018-04-06T16:13:01.926Z,24.10
2018-04-06T16:15:28.883Z,23.80
2018-04-06T16:17:56.025Z,24.40
2018-04-06T16:20:22.395Z,24.40
2018-04-06T16:22:49.498Z,24.30
2018-04-06T16:25:15.879Z,24.30
2018-04-06T16:27:42.240Z,24.60
2018-04-06T16:30:09.555Z,24.40
2018-04-06T16:32:37.273Z,24.30
2018-04-06T16:35:03.690Z,24.30
2018-04-06T16:37:30.043Z,24.10
2018-04-06T16:39:57.914Z,23.20
2018-04-06T16:42:25.028Z,23.20
2018-04-06T16:44:51.555Z,22.70
2018-04-06T16:47:18.608Z,22.60
2018-04-06T16:49:44.999Z,22.70
2018-04-06T16:52:12.187Z,22.40
2018-04-06T16:54:38.630Z,22.30
2018-04-06T16:57:04.990Z,21.80
2018-04-06T16:59:31.396Z,21.00
2018-04-06T17:01:57.765Z,20.00
2018-04-06T17:04:25.692Z,17.70
2018-04-06T17:06:52.062Z,17.70
2018-04-06T17:09:18.430Z,17.00
2018-04-06T17:11:44.826Z,16.40
2018-04-06T17:14:12.271Z,15.70
2018-04-06T17:16:39.671Z,15.20
2018-04-06T17:19:07.014Z,14.90
2018-04-06T17:21:34.160Z,14.00
2018-04-06T17:24:02.275Z,13.80
2018-04-06T17:26:28.679Z,13.70
2018-04-06T17:28:55.078Z,13.50
2018-04-06T17:31:21.502Z,13.20
2018-04-06T17:33:47.991Z,13.00
2018-04-06T17:36:14.398Z,12.80
2018-04-06T17:38:41.544Z,12.60
2018-04-06T17:41:09.033Z,12.40
2018-04-06T17:43:35.504Z,12.40
2018-04-06T17:46:02.534Z,12.30
2018-04-06T17:48:28.931Z,12.20
2018-04-06T17:50:55.331Z,12.10
2018-04-06T17:53:21.710Z,12.00
2018-04-06T17:55:48.132Z,11.90
2018-04-06T17:58:14.503Z,11.80
2018-04-06T18:00:40.878Z,11.50
2018-04-06T18:03:07.295Z,11.30
2018-04-06T18:05:33.699Z,11.20
2018-04-06T18:08:00.133Z,11.00
2018-04-06T18:10:26.527Z,10.80
2018-04-06T18:12:52.915Z,10.70
2018-04-06T18:15:19.305Z,10.50
2018-04-06T18:17:45.719Z,10.40
2018-04-06T18:20:12.103Z,10.30
2018-04-06T18:22:38.487Z,10.20
2018-04-06T18:25:04.899Z,10.10
2018-04-06T18:27:32.096Z,9.90
2018-04-06T18:29:59.311Z,9.80
2018-04-06T18:32:26.450Z,9.70
2018-04-06T18:34:53.605Z,9.60
2018-04-06T18:37:21.333Z,9.60
2018-04-06T18:39:47.835Z,9.50
2018-04-06T18:42:14.259Z,9.60
2018-04-06T18:44:40.929Z,9.50
2018-04-06T18:47:07.353Z,9.40
2018-04-06T18:49:33.782Z,9.40
2018-04-06T18:52:00.165Z,9.30
2018-04-06T18:54:26.658Z,9.20
2018-04-06T18:56:53.102Z,9.20
2018-04-06T18:59:20.290Z,9.00
2018-04-06T19:01:48.475Z,9.00
2018-04-06T19:04:15.599Z,8.90
2018-04-06T19:06:43.457Z,8.80
2018-04-06T19:09:09.883Z,8.80
2018-04-06T19:11:36.263Z,8.80
2018-04-06T19:14:03.463Z,8.70
2018-04-06T19:16:29.996Z,8.70
2018-04-06T19:18:56.413Z,8.60
2018-04-06T19:21:22.790Z,8.60
2018-04-06T19:23:49.212Z,8.50
2018-04-06T19:26:15.992Z,8.50
2018-04-06T19:28:43.119Z,8.40
2018-04-06T19:31:09.519Z,8.40
2018-04-06T19:33:35.892Z,8.40
2018-04-06T19:36:03.046Z,8.30
2018-04-06T19:38:30.868Z,8.30
2018-04-06T19:40:57.267Z,8.20
2018-04-06T19:43:23.667Z,8.20
2018-04-06T19:45:50.879Z,8.10
2018-04-06T19:48:17.296Z,8.10
2018-04-06T19:50:43.677Z,8.00
2018-04-06T19:53:10.096Z,8.00
2018-04-06T19:55:36.471Z,7.90
2018-04-06T19:58:03.445Z,7.80
2018-04-06T20:00:29.836Z,7.80
2018-04-06T20:02:56.966Z,7.70
2018-04-06T20:05:24.070Z,7.60
2018-04-06T20:07:50.514Z,7.70
2018-04-06T20:10:16.907Z,7.70
2018-04-06T20:12:44.048Z,7.60
2018-04-06T20:15:10.457Z,7.60
2018-04-06T20:17:37.834Z,7.60
2018-04-06T20:20:04.974Z,7.50
2018-04-06T20:22:32.134Z,7.50
2018-04-06T20:24:59.251Z,7.30
2018-04-06T20:27:25.618Z,7.30
2018-04-06T20:29:52.746Z,7.30
2018-04-06T20:32:20.143Z,7.30
2018-04-06T20:34:46.539Z,7.20
2018-04-06T20:37:12.950Z,7.00
2018-04-06T20:39:40.289Z,7.10
2018-04-06T20:42:07.279Z,7.00
2018-04-06T20:44:34.428Z,7.10
2018-04-06T20:47:01.712Z,7.00
2018-04-06T20:49:28.083Z,6.90
2018-04-06T20:51:54.502Z,7.00
2018-04-06T20:54:20.885Z,7.00
2018-04-06T20:56:48.639Z,6.80
2018-04-06T20:59:15.775Z,6.80
2018-04-06T21:01:42.151Z,6.70
2018-04-06T21:04:08.820Z,6.70
2018-04-06T21:06:35.966Z,6.60
2018-04-06T21:09:02.485Z,6.70
2018-04-06T21:11:28.863Z,6.60
2018-04-06T21:13:55.259Z,6.70
2018-04-06T21:16:21.631Z,6.60
2018-04-06T21:18:48.007Z,6.60
2018-04-06T21:21:14.436Z,6.50
2018-04-06T21:23:41.567Z,6.50
2018-04-06T21:26:08.779Z,6.50
2018-04-06T21:28:35.163Z,6.40
2018-04-06T21:31:01.539Z,6.50
2018-04-06T21:33:27.936Z,6.40
2018-04-06T21:35:54.472Z,6.50
2018-04-06T21:38:20.880Z,6.50
2018-04-06T21:40:47.999Z,6.50
2018-04-06T21:43:14.922Z,6.50
2018-04-06T21:45:41.346Z,6.50
2018-04-06T21:48:07.742Z,6.40
2018-04-06T21:50:35.011Z,6.30
2018-04-06T21:53:01.395Z,6.30
2018-04-06T21:55:27.906Z,6.20
2018-04-06T21:57:54.336Z,6.20
2018-04-06T22:00:20.773Z,6.30
2018-04-06T22:02:47.171Z,6.20
2018-04-06T22:05:13.614Z,6.20
2018-04-06T22:07:40.075Z,6.20
2018-04-06T22:10:06.584Z,6.30
2018-04-06T22:12:32.987Z,6.20
2018-04-06T22:15:00.771Z,6.20
2018-04-06T22:17:27.162Z,6.20
2018-04-06T22:19:53.559Z,6.10
2018-04-06T22:22:20.617Z,6.20
2018-04-06T22:24:46.991Z,6.20
2018-04-06T22:27:14.114Z,6.10
2018-04-06T22:29:40.491Z,6.00
2018-04-06T22:32:07.361Z,6.10
2018-04-06T22:34:33.806Z,6.10
2018-04-06T22:37:00.174Z,6.10
2018-04-06T22:39:27.235Z,6.10
2018-04-06T22:41:55.277Z,6.10
2018-04-06T22:44:22.119Z,6.00
2018-04-06T22:46:48.512Z,6.00
2018-04-06T22:49:14.896Z,5.90
2018-04-06T22:51:41.283Z,5.90
2018-04-06T22:54:08.392Z,6.00
2018-04-06T22:56:35.522Z,6.00
2018-04-06T22:59:02.018Z,6.00
2018-04-06T23:01:28.965Z,5.90
2018-04-06T23:03:56.355Z,5.90
2018-04-06T23:06:22.732Z,5.90
2018-04-06T23:08:49.131Z,5.80
2018-04-06T23:11:16.831Z,5.80
2018-04-06T23:13:43.198Z,5.80
2018-04-06T23:16:11.338Z,5.70
2018-04-06T23:18:37.797Z,5.70
2018-04-06T23:21:04.183Z,5.80
2018-04-06T23:23:31.305Z,5.80
2018-04-06T23:25:57.809Z,5.70
2018-04-06T23:28:24.203Z,5.70
2018-04-06T23:30:50.602Z,5.70
2018-04-06T23:33:17.691Z,5.60
2018-04-06T23:35:44.154Z,5.60
2018-04-06T23:38:10.547Z,5.60
2018-04-06T23:40:37.715Z,5.50
2018-04-06T23:43:04.151Z,5.50
2018-04-06T23:45:30.571Z,5.50
2018-04-06T23:47:57.037Z,5.40
2018-04-06T23:50:23.427Z,5.40
2018-04-06T23:52:50.625Z,5.30
2018-04-06T23:55:17.039Z,5.30
2018-04-06T23:57:43.422Z,5.30
